Time;durP1;ratioP1;P1;durP2;ratioP2;P2;SDS_P1;SDS_P2;PMS_P1;PMS_P2;Temp;Humidity;BMP_temperature;BMP_pressure;BME280_temperature;BME280_humidity;BME280_pressure;Samples;Min_cycle;Max_cycle;Signal;HPM_P1;HPM_P2
2021/10/10 00:00:58;;;;;;;5.45;3.85;;;11.00;50.90;;;;;;4991240;28;20521;-53
2021/10/10 00:03:23;;;;;;;6.55;4.05;;;11.00;50.80;;;;;;4975814;28;20030;-52
2021/10/10 00:05:49;;;;;;;6.40;4.00;;;11.00;50.70;;;;;;4981964;28;20392;-52
2021/10/10 00:08:15;;;;;;;5.75;4.30;;;11.10;50.50;;;;;;4994862;28;20022;-52
2021/10/10 00:10:41;;;;;;;5.93;3.72;;;11.10;50.60;;;;;;4994734;28;20022;-52
2021/10/10 00:13:06;;;;;;;5.68;4.00;;;11.10;50.60;;;;;;4980496;28;20399;-51
2021/10/10 00:15:32;;;;;;;6.82;3.63;;;11.10;50.60;;;;;;4975715;28;20058;-52
2021/10/10 00:17:58;;;;;;;7.45;3.83;;;11.10;50.50;;;;;;4975698;28;20395;-52
2021/10/10 00:20:23;;;;;;;5.47;4.05;;;11.10;50.40;;;;;;4975298;28;20054;-52
2021/10/10 00:22:49;;;;;;;4.82;3.50;;;11.10;50.50;;;;;;4987982;28;20035;-52
2021/10/10 00:25:15;;;;;;;5.97;3.50;;;11.10;50.50;;;;;;4994386;28;20105;-53
2021/10/10 00:27:41;;;;;;;5.85;3.88;;;11.10;50.50;;;;;;4994456;28;20046;-52
2021/10/10 00:30:09;;;;;;;5.32;4.38;;;11.10;50.50;;;;;;4994382;28;20089;-52
2021/10/10 00:32:35;;;;;;;6.20;3.83;;;11.10;50.40;;;;;;4994312;28;20026;-53
2021/10/10 00:35:01;;;;;;;5.63;3.95;;;11.10;50.20;;;;;;4993948;28;20035;-52
2021/10/10 00:37:27;;;;;;;4.63;3.90;;;11.20;50.20;;;;;;4994145;28;20038;-52
2021/10/10 00:39:53;;;;;;;6.30;3.63;;;11.10;50.30;;;;;;4994096;28;20046;-52
2021/10/10 00:42:19;;;;;;;5.18;3.75;;;11.10;50.20;;;;;;4994554;28;20030;-53
2021/10/10 00:44:46;;;;;;;5.20;3.70;;;11.10;50.10;;;;;;4993960;28;20018;-52
2021/10/10 00:47:12;;;;;;;6.97;4.30;;;11.10;50.20;;;;;;4994096;28;20088;-52
2021/10/10 00:49:38;;;;;;;5.00;3.85;;;11.10;50.20;;;;;;4994452;28;20479;-52
2021/10/10 00:52:05;;;;;;;5.80;4.15;;;11.10;50.20;;;;;;4993193;28;20026;-51
2021/10/10 00:54:32;;;;;;;7.57;4.22;;;11.20;50.20;;;;;;4993869;28;20371;-52
2021/10/10 00:56:59;;;;;;;5.55;3.92;;;11.20;50.20;;;;;;4993772;28;20628;-52
2021/10/10 00:59:27;;;;;;;6.65;4.32;;;11.20;50.30;;;;;;4993957;28;20107;-52
2021/10/10 01:01:53;;;;;;;6.00;3.95;;;11.20;50.20;;;;;;4993190;28;20363;-52
2021/10/10 01:04:19;;;;;;;6.05;4.00;;;11.20;50.10;;;;;;4992394;28;20041;-52
2021/10/10 01:06:45;;;;;;;6.55;4.18;;;11.20;50.10;;;;;;4993914;28;20022;-52
2021/10/10 01:09:13;;;;;;;5.18;3.88;;;11.20;49.90;;;;;;4977933;28;20092;-52
2021/10/10 01:11:39;;;;;;;5.88;3.90;;;11.20;50.00;;;;;;4975226;28;20066;-51
2021/10/10 01:14:05;;;;;;;7.05;4.20;;;11.20;50.00;;;;;;4993514;28;20077;-52
2021/10/10 01:16:30;;;;;;;5.88;4.03;;;11.20;49.80;;;;;;4993734;28;20026;-52
2021/10/10 01:18:57;;;;;;;6.53;4.10;;;11.20;49.80;;;;;;4993686;28;20066;-52
2021/10/10 01:21:23;;;;;;;5.68;3.70;;;11.20;49.80;;;;;;4993677;28;20513;-51
2021/10/10 01:23:49;;;;;;;5.68;4.15;;;11.20;49.60;;;;;;4993702;28;20027;-52
2021/10/10 01:26:15;;;;;;;5.82;4.47;;;11.20;49.60;;;;;;4985150;28;20031;-52
2021/10/10 01:28:41;;;;;;;8.43;4.70;;;11.20;49.80;;;;;;4974138;28;20026;-52
2021/10/10 01:31:06;;;;;;;5.88;4.22;;;11.20;49.60;;;;;;4983291;28;20528;-52
2021/10/10 01:33:33;;;;;;;5.07;3.75;;;11.10;49.50;;;;;;4993305;28;20486;-53
2021/10/10 01:35:59;;;;;;;6.75;4.15;;;11.10;49.40;;;;;;4993691;28;20030;-52
2021/10/10 01:38:25;;;;;;;6.45;4.60;;;11.10;49.40;;;;;;4993398;28;20026;-52
2021/10/10 01:40:52;;;;;;;6.63;4.20;;;11.10;49.50;;;;;;4993719;28;20479;-52
2021/10/10 01:43:17;;;;;;;5.95;4.13;;;11.10;49.50;;;;;;4991941;28;20026;-52
2021/10/10 01:45:43;;;;;;;6.20;4.20;;;11.10;49.40;;;;;;4993070;28;20068;-52
2021/10/10 01:48:10;;;;;;;7.32;4.43;;;11.10;49.50;;;;;;4993306;28;20086;-51
2021/10/10 01:50:37;;;;;;;6.90;4.97;;;11.00;49.40;;;;;;4993498;28;20031;-52
2021/10/10 01:53:03;;;;;;;7.63;4.43;;;11.00;49.40;;;;;;4993248;28;20022;-52
2021/10/10 01:55:30;;;;;;;5.57;4.30;;;11.00;49.60;;;;;;4993541;28;20026;-53
2021/10/10 01:57:56;;;;;;;6.72;4.45;;;11.00;49.50;;;;;;4993125;28;20038;-52
2021/10/10 02:00:22;;;;;;;5.28;4.30;;;11.00;49.60;;;;;;4993143;28;20366;-52
2021/10/10 02:02:47;;;;;;;8.00;4.75;;;11.00;49.60;;;;;;4973844;28;20031;-52
2021/10/10 02:05:13;;;;;;;6.63;4.63;;;10.90;49.70;;;;;;4983397;28;20080;-52
2021/10/10 02:07:39;;;;;;;6.60;4.22;;;10.90;49.50;;;;;;4993208;28;20025;-52
2021/10/10 02:10:07;;;;;;;5.38;4.05;;;10.90;49.60;;;;;;4993068;28;20026;-52
2021/10/10 02:12:33;;;;;;;6.80;4.53;;;10.90;49.70;;;;;;4995096;28;20030;-52
2021/10/10 02:14:58;;;;;;;6.38;4.10;;;10.90;49.70;;;;;;5012684;28;20026;-52
2021/10/10 02:17:24;;;;;;;7.53;4.03;;;10.90;49.60;;;;;;5012657;28;20053;-52
2021/10/10 02:19:49;;;;;;;5.78;4.25;;;10.90;49.50;;;;;;4978331;28;20475;-52
2021/10/10 02:22:15;;;;;;;5.95;3.90;;;10.80;49.60;;;;;;4983724;28;20023;-52
2021/10/10 02:24:41;;;;;;;4.60;3.95;;;10.80;49.70;;;;;;4993040;28;20042;-52
2021/10/10 02:27:06;;;;;;;5.55;4.07;;;10.80;49.50;;;;;;4993379;28;20057;-52
2021/10/10 02:29:32;;;;;;;7.38;4.50;;;10.80;49.40;;;;;;4993229;28;20715;-52
2021/10/10 02:31:58;;;;;;;6.63;4.05;;;10.80;49.30;;;;;;4992960;28;20034;-52
2021/10/10 02:34:24;;;;;;;6.28;4.18;;;10.80;49.30;;;;;;4993282;28;20420;-52
2021/10/10 02:36:49;;;;;;;5.40;3.83;;;10.70;49.40;;;;;;4982054;28;20058;-52
2021/10/10 02:39:15;;;;;;;4.30;3.53;;;10.70;49.30;;;;;;4992818;28;20105;-52
2021/10/10 02:41:41;;;;;;;6.65;4.45;;;10.70;49.40;;;;;;4992619;28;20564;-52
2021/10/10 02:44:07;;;;;;;5.30;3.80;;;10.70;49.40;;;;;;4993148;28;20057;-52
2021/10/10 02:46:33;;;;;;;6.68;4.30;;;10.70;49.40;;;;;;4995807;28;20030;-52
2021/10/10 02:49:00;;;;;;;6.00;4.18;;;10.70;49.40;;;;;;4996257;28;20018;-52
2021/10/10 02:51:26;;;;;;;6.82;4.03;;;10.60;49.30;;;;;;4996247;28;20053;-52
2021/10/10 02:53:51;;;;;;;7.18;4.22;;;10.60;49.30;;;;;;4982563;28;20034;-52
2021/10/10 02:56:17;;;;;;;4.97;3.88;;;10.60;49.30;;;;;;4987019;28;20034;-52
2021/10/10 02:58:43;;;;;;;7.25;4.35;;;10.60;49.50;;;;;;4996088;28;20541;-52
2021/10/10 03:01:12;;;;;;;5.22;3.80;;;10.60;49.60;;;;;;4996265;28;20053;-52
2021/10/10 03:03:38;;;;;;;5.40;3.95;;;10.60;49.80;;;;;;4995603;28;20030;-52
2021/10/10 03:06:04;;;;;;;5.25;3.78;;;10.60;49.80;;;;;;4996005;28;20359;-52
2021/10/10 03:08:29;;;;;;;5.40;4.10;;;10.60;49.90;;;;;;4994512;28;20106;-52
2021/10/10 03:10:55;;;;;;;5.97;4.72;;;10.60;49.80;;;;;;4976503;28;20030;-52
2021/10/10 03:13:20;;;;;;;6.07;4.28;;;10.60;50.10;;;;;;4992710;28;20383;-52
2021/10/10 03:15:46;;;;;;;6.60;4.18;;;10.50;50.00;;;;;;4996211;28;20026;-52
2021/10/10 03:18:12;;;;;;;5.65;4.05;;;10.50;50.00;;;;;;4995928;28;20033;-52
2021/10/10 03:20:37;;;;;;;6.13;4.35;;;10.50;50.10;;;;;;4995725;28;20027;-52
2021/10/10 03:23:03;;;;;;;6.15;4.70;;;10.50;50.20;;;;;;4995761;28;20022;-53
2021/10/10 03:25:29;;;;;;;9.93;5.47;;;10.50;50.20;;;;;;4990025;28;20038;-52
2021/10/10 03:27:54;;;;;;;6.75;3.92;;;10.40;50.10;;;;;;4976309;28;20475;-53
2021/10/10 03:30:20;;;;;;;5.70;4.20;;;10.50;50.20;;;;;;4986417;28;20018;-52
2021/10/10 03:32:46;;;;;;;7.50;4.75;;;10.40;50.00;;;;;;4995330;28;20022;-52
2021/10/10 03:35:11;;;;;;;5.50;4.05;;;10.40;50.20;;;;;;4995456;28;20026;-52
2021/10/10 03:37:37;;;;;;;7.55;4.85;;;10.40;50.20;;;;;;4995575;28;20406;-52
2021/10/10 03:40:05;;;;;;;8.48;4.68;;;10.40;50.20;;;;;;4995273;28;20510;-52
2021/10/10 03:42:30;;;;;;;5.75;4.10;;;10.30;50.00;;;;;;4994192;28;20030;-52
2021/10/10 03:44:56;;;;;;;6.72;4.60;;;10.30;50.20;;;;;;4976002;28;20509;-52
2021/10/10 03:47:21;;;;;;;6.32;4.40;;;10.30;50.20;;;;;;4987078;28;20030;-52
2021/10/10 03:49:47;;;;;;;5.65;4.18;;;10.30;50.20;;;;;;4995257;28;20015;-52
2021/10/10 03:52:13;;;;;;;5.55;4.20;;;10.30;50.30;;;;;;4995245;28;20034;-52
2021/10/10 03:57:10;;;;;;;6.78;4.18;;;10.40;50.40;;;;;;4995565;28;20033;-52
2021/10/10 03:59:36;;;;;;;6.65;5.00;;;10.40;50.40;;;;;;4983752;28;20035;-53
2021/10/10 04:02:06;;;;;;;5.63;4.13;;;10.40;50.50;;;;;;4991293;28;20042;-52
2021/10/10 04:04:34;;;;;;;6.03;4.72;;;10.40;50.40;;;;;;4992067;28;20417;-52
2021/10/10 04:07:00;;;;;;;7.68;4.32;;;10.40;50.40;;;;;;4995125;28;20478;-52
2021/10/10 04:09:26;;;;;;;6.28;3.75;;;10.40;50.40;;;;;;4995234;28;20026;-52
2021/10/10 04:11:52;;;;;;;8.98;4.60;;;10.40;50.40;;;;;;4994602;28;20077;-52
2021/10/10 04:14:17;;;;;;;6.65;4.32;;;10.40;50.40;;;;;;4984642;28;20082;-52
2021/10/10 04:16:43;;;;;;;5.43;3.75;;;10.40;50.40;;;;;;4975515;28;20525;-52
2021/10/10 04:19:08;;;;;;;5.45;3.78;;;10.40;50.40;;;;;;4975390;28;20031;-52
2021/10/10 04:21:34;;;;;;;6.82;5.05;;;10.40;50.30;;;;;;4987838;28;20049;-52
2021/10/10 04:24:00;;;;;;;6.93;4.60;;;10.40;50.50;;;;;;4994691;28;20080;-52
2021/10/10 04:26:25;;;;;;;4.82;3.72;;;10.40;50.40;;;;;;4994680;28;20077;-52
2021/10/10 04:28:51;;;;;;;7.25;4.25;;;10.40;50.50;;;;;;4994540;28;20026;-52
2021/10/10 04:31:18;;;;;;;10.32;4.93;;;10.40;50.40;;;;;;4994622;28;20033;-52
2021/10/10 04:33:43;;;;;;;8.05;4.75;;;10.40;50.30;;;;;;4975853;28;20038;-52
2021/10/10 04:36:09;;;;;;;5.82;3.88;;;10.40;50.40;;;;;;4974997;28;20023;-52
2021/10/10 04:38:35;;;;;;;5.60;4.05;;;10.50;50.30;;;;;;4991812;28;20039;-52
2021/10/10 04:41:00;;;;;;;8.30;4.45;;;10.50;50.40;;;;;;4994137;28;20042;-52
2021/10/10 04:43:26;;;;;;;6.03;4.25;;;10.50;50.60;;;;;;4994303;28;20045;-52
2021/10/10 04:45:52;;;;;;;7.68;4.68;;;10.60;50.60;;;;;;4994318;28;20027;-52
2021/10/10 04:48:17;;;;;;;7.35;4.18;;;10.60;50.60;;;;;;4994557;28;20041;-53
2021/10/10 04:50:43;;;;;;;6.70;4.57;;;10.60;50.70;;;;;;4976919;28;20027;-52
2021/10/10 04:53:09;;;;;;;7.10;4.20;;;10.60;50.80;;;;;;4974742;28;20023;-52
2021/10/10 04:55:34;;;;;;;7.13;4.25;;;10.70;50.80;;;;;;4987303;28;20034;-52
2021/10/10 04:58:01;;;;;;;6.53;4.63;;;10.70;50.80;;;;;;4994000;28;20544;-52
2021/10/10 05:00:27;;;;;;;5.28;4.15;;;10.70;51.40;;;;;;4992792;28;20038;-52
2021/10/10 05:02:53;;;;;;;7.47;4.93;;;10.70;50.60;;;;;;4992575;28;20030;-53
2021/10/10 05:05:19;;;;;;;8.10;4.53;;;10.70;50.50;;;;;;4984048;28;20031;-52
2021/10/10 05:07:45;;;;;;;6.80;4.97;;;10.70;50.60;;;;;;4993398;28;20019;-52
2021/10/10 05:10:10;;;;;;;5.13;3.97;;;10.70;50.80;;;;;;4993993;28;20026;-52
2021/10/10 05:12:36;;;;;;;6.97;4.43;;;10.70;50.70;;;;;;4993651;28;20101;-52
2021/10/10 05:15:03;;;;;;;5.93;4.57;;;10.70;50.70;;;;;;4994113;28;20421;-53
2021/10/10 05:17:29;;;;;;;6.55;4.85;;;10.70;50.70;;;;;;4993768;28;20057;-52
2021/10/10 05:19:55;;;;;;;6.80;4.72;;;10.80;50.80;;;;;;4994053;28;20058;-52
2021/10/10 05:22:20;;;;;;;6.15;4.25;;;10.80;50.80;;;;;;4986575;28;20067;-52
2021/10/10 05:24:46;;;;;;;6.28;4.40;;;10.80;51.00;;;;;;4974271;28;20391;-52
2021/10/10 05:27:11;;;;;;;7.50;4.93;;;10.80;51.10;;;;;;4973804;28;20038;-53
2021/10/10 05:29:37;;;;;;;6.38;4.72;;;10.80;51.10;;;;;;4987156;28;20022;-52
2021/10/10 05:32:03;;;;;;;5.80;4.68;;;10.80;51.10;;;;;;4993754;28;20019;-52
2021/10/10 05:34:28;;;;;;;9.65;4.97;;;10.80;51.10;;;;;;4993105;28;20498;-52
2021/10/10 05:36:54;;;;;;;6.65;4.50;;;10.80;51.10;;;;;;4992362;28;20041;-52
2021/10/10 05:39:23;;;;;;;5.43;4.20;;;10.80;51.00;;;;;;4990720;28;20064;-52
2021/10/10 05:41:49;;;;;;;5.68;4.00;;;10.80;51.20;;;;;;4976195;28;20031;-52
2021/10/10 05:44:15;;;;;;;7.05;4.50;;;10.90;51.30;;;;;;4993625;28;20081;-52
2021/10/10 05:46:40;;;;;;;5.55;4.70;;;10.90;51.20;;;;;;4993416;28;20034;-52
2021/10/10 05:49:06;;;;;;;6.72;4.68;;;10.90;51.20;;;;;;4993661;28;20367;-52
2021/10/10 05:51:32;;;;;;;6.95;4.38;;;11.00;51.20;;;;;;4993503;28;20022;-53
2021/10/10 05:53:58;;;;;;;5.55;4.18;;;11.00;51.20;;;;;;4993718;28;20023;-52
2021/10/10 05:56:23;;;;;;;5.80;4.47;;;11.10;51.10;;;;;;4976886;28;20398;-52
2021/10/10 05:58:55;;;;;;;6.10;4.50;;;11.10;51.10;;;;;;4973909;28;20113;-52
2021/10/10 06:01:21;;;;;;;6.93;4.60;;;11.20;51.00;;;;;;4985013;28;20114;-52
2021/10/10 06:03:47;;;;;;;5.28;4.13;;;11.20;50.90;;;;;;4993074;28;20050;-52
2021/10/10 06:06:12;;;;;;;5.30;4.40;;;11.30;51.20;;;;;;4993291;28;20405;-53
2021/10/10 06:08:38;;;;;;;5.00;4.03;;;11.30;51.20;;;;;;4993277;28;20160;-53
2021/10/10 06:11:05;;;;;;;5.60;4.40;;;11.40;51.30;;;;;;4993368;28;20382;-52
2021/10/10 06:13:32;;;;;;;5.57;4.22;;;11.40;51.00;;;;;;4986195;28;20558;-52
2021/10/10 06:15:57;;;;;;;5.72;3.97;;;11.40;51.10;;;;;;4986584;28;20128;-52
2021/10/10 06:18:24;;;;;;;5.43;4.20;;;11.40;51.20;;;;;;4993560;28;20471;-52
2021/10/10 06:20:50;;;;;;;4.82;3.92;;;11.40;51.20;;;;;;4995301;28;20474;-52
2021/10/10 06:23:16;;;;;;;7.22;4.10;;;11.40;51.30;;;;;;4997330;28;20038;-52
2021/10/10 06:25:42;;;;;;;5.82;4.00;;;11.40;51.20;;;;;;4996897;28;20479;-52
2021/10/10 06:28:07;;;;;;;6.28;4.05;;;11.40;51.20;;;;;;4996859;28;20477;-54
2021/10/10 06:30:33;;;;;;;6.82;3.92;;;11.40;51.30;;;;;;4979330;28;20033;-54
2021/10/10 06:32:59;;;;;;;7.00;3.80;;;11.50;51.40;;;;;;4977304;28;20027;-54
2021/10/10 06:35:24;;;;;;;5.35;3.88;;;11.50;51.40;;;;;;4977369;28;20023;-53
2021/10/10 06:37:50;;;;;;;5.38;4.47;;;11.60;51.40;;;;;;4992199;28;20029;-52
2021/10/10 06:40:15;;;;;;;4.93;3.92;;;11.60;51.50;;;;;;4996662;28;20056;-52
2021/10/10 06:42:42;;;;;;;6.97;4.47;;;11.70;51.50;;;;;;4996587;28;20038;-52
2021/10/10 06:45:08;;;;;;;5.63;4.20;;;11.70;51.30;;;;;;4983434;28;20030;-53
2021/10/10 06:47:36;;;;;;;6.15;3.88;;;11.80;51.30;;;;;;4977066;28;20076;-52
2021/10/10 06:50:02;;;;;;;5.85;4.22;;;11.80;51.20;;;;;;4977067;28;20106;-52
2021/10/10 06:52:27;;;;;;;5.13;3.83;;;11.80;51.30;;;;;;4977081;28;20023;-53
2021/10/10 06:54:53;;;;;;;4.90;3.65;;;11.80;51.40;;;;;;4992247;28;20026;-52
2021/10/10 06:57:19;;;;;;;6.82;4.68;;;11.90;51.30;;;;;;4995847;28;20069;-52
2021/10/10 06:59:44;;;;;;;7.38;4.20;;;11.90;51.30;;;;;;4996300;28;20117;-52
2021/10/10 07:02:11;;;;;;;5.68;4.45;;;11.90;51.20;;;;;;4994286;28;20043;-52
2021/10/10 07:04:37;;;;;;;6.47;4.00;;;11.90;51.30;;;;;;4992639;28;20030;-52
2021/10/10 07:07:03;;;;;;;4.40;3.70;;;11.80;51.30;;;;;;4996051;28;20486;-52
2021/10/10 07:09:29;;;;;;;5.38;3.95;;;11.90;51.40;;;;;;4994488;28;20141;-52
2021/10/10 07:11:54;;;;;;;5.55;4.20;;;11.90;51.50;;;;;;4995594;28;20066;-53
2021/10/10 07:14:20;;;;;;;5.35;4.35;;;11.90;51.40;;;;;;4978125;28;20034;-52
2021/10/10 07:16:46;;;;;;;6.38;4.55;;;11.90;51.30;;;;;;4995415;28;20038;-53
2021/10/10 07:19:12;;;;;;;5.80;4.15;;;11.90;51.30;;;;;;4996066;28;20050;-52
2021/10/10 07:21:55;;;;;;;6.70;4.40;;;11.90;51.40;;;;;;4995845;28;20053;-52
2021/10/10 07:27:05;;;;;;;4.93;3.65;;;11.90;51.60;;;;;;4995809;28;20052;-52
2021/10/10 07:29:31;;;;;;;6.57;4.00;;;11.90;51.60;;;;;;4995792;28;20019;-52
2021/10/10 07:31:57;;;;;;;5.38;3.83;;;11.90;51.50;;;;;;4995631;28;20026;-55
2021/10/10 07:34:23;;;;;;;5.22;3.70;;;11.90;51.40;;;;;;4995184;28;20073;-52
2021/10/10 07:36:48;;;;;;;7.25;4.18;;;11.90;51.40;;;;;;4995293;28;20026;-52
2021/10/10 07:39:14;;;;;;;4.88;3.75;;;11.90;51.40;;;;;;4994942;28;20151;-53
2021/10/10 07:41:40;;;;;;;6.18;4.35;;;12.00;51.30;;;;;;4995541;28;20026;-54
2021/10/10 07:44:08;;;;;;;5.43;4.00;;;12.00;51.40;;;;;;4995619;28;20030;-53
2021/10/10 07:46:37;;;;;;;6.72;4.50;;;12.00;51.40;;;;;;4982468;28;20133;-53
2021/10/10 07:49:04;;;;;;;6.65;3.97;;;12.00;51.30;;;;;;4995424;28;20055;-53
2021/10/10 07:51:30;;;;;;;5.72;4.38;;;12.00;51.40;;;;;;4995192;28;20489;-53
2021/10/10 07:53:56;;;;;;;5.97;4.25;;;12.00;51.40;;;;;;4995560;28;20031;-53
2021/10/10 07:56:22;;;;;;;6.60;4.38;;;12.10;51.70;;;;;;4995103;28;20030;-53
2021/10/10 07:58:48;;;;;;;7.18;4.13;;;12.10;51.70;;;;;;4978487;28;20142;-54
2021/10/10 08:01:16;;;;;;;6.00;4.18;;;12.20;51.80;;;;;;4985258;28;20026;-53
2021/10/10 08:03:42;;;;;;;6.95;3.83;;;12.20;52.10;;;;;;4995337;28;20601;-53
2021/10/10 08:06:09;;;;;;;5.55;4.07;;;12.30;52.10;;;;;;4994903;28;20106;-53
2021/10/10 08:08:35;;;;;;;5.90;4.50;;;12.40;52.10;;;;;;4994709;28;20038;-52
2021/10/10 08:11:01;;;;;;;6.90;3.85;;;12.40;52.00;;;;;;4994956;28;20367;-50
2021/10/10 08:13:26;;;;;;;5.57;3.90;;;12.40;51.80;;;;;;4994941;28;20026;-50
2021/10/10 08:15:52;;;;;;;7.22;3.55;;;12.50;52.20;;;;;;4989800;28;20478;-51
2021/10/10 08:18:20;;;;;;;6.20;4.00;;;12.50;51.40;;;;;;4994850;28;20034;-52
2021/10/10 08:20:46;;;;;;;7.78;4.15;;;12.50;51.10;;;;;;4995065;28;20045;-51
2021/10/10 08:23:12;;;;;;;5.53;4.28;;;12.50;51.20;;;;;;4994852;28;20109;-55
2021/10/10 08:25:37;;;;;;;7.22;4.50;;;12.50;51.30;;;;;;4994935;28;20033;-52
2021/10/10 08:28:04;;;;;;;5.68;4.20;;;12.50;51.40;;;;;;4994874;28;20418;-52
2021/10/10 08:30:30;;;;;;;5.70;4.38;;;12.50;51.30;;;;;;4994530;28;20054;-52
2021/10/10 08:32:56;;;;;;;5.47;3.83;;;12.50;51.40;;;;;;4994561;28;20030;-52
2021/10/10 08:35:21;;;;;;;4.25;3.50;;;12.50;51.60;;;;;;4994384;28;20479;-52
2021/10/10 08:37:48;;;;;;;5.55;3.72;;;12.50;51.80;;;;;;4994147;28;20030;-52
2021/10/10 08:40:15;;;;;;;5.50;3.88;;;12.50;52.00;;;;;;4994326;28;20038;-52
2021/10/10 08:42:47;;;;;;;5.40;4.60;;;12.60;52.20;;;;;;4993619;28;20026;-52
2021/10/10 08:45:20;;;;;;;10.05;5.15;;;12.60;52.20;;;;;;4987168;28;20031;-52
2021/10/10 08:47:48;;;;;;;5.68;4.05;;;12.60;52.20;;;;;;4974731;28;20038;-53
2021/10/10 08:50:19;;;;;;;5.05;3.85;;;12.50;52.20;;;;;;4973784;28;20081;-52
2021/10/10 08:52:47;;;;;;;4.88;3.63;;;12.50;52.30;;;;;;4980979;28;20474;-52
2021/10/10 08:55:14;;;;;;;5.25;4.38;;;12.60;52.40;;;;;;4994310;28;20105;-52
2021/10/10 08:57:40;;;;;;;5.03;3.75;;;12.60;52.30;;;;;;4976724;28;20068;-52
2021/10/10 09:00:12;;;;;;;5.68;3.85;;;12.60;52.00;;;;;;4994119;28;20076;-52
2021/10/10 09:02:40;;;;;;;7.55;4.40;;;12.60;52.20;;;;;;4994212;28;20030;-52
2021/10/10 09:05:09;;;;;;;6.38;4.47;;;12.60;52.00;;;;;;4983693;28;20041;-53
2021/10/10 09:07:36;;;;;;;7.07;4.10;;;12.60;52.20;;;;;;4977154;28;20022;-51
2021/10/10 09:10:31;;;;;;;6.43;4.60;;;12.60;52.30;;;;;;4992744;28;20026;-52
2021/10/10 09:13:09;;;;;;;7.05;5.18;;;12.60;52.30;;;;;;4992627;28;20058;-52
2021/10/10 09:15:38;;;;;;;6.55;4.30;;;12.60;52.30;;;;;;4992548;28;20023;-54
2021/10/10 09:18:05;;;;;;;6.57;4.57;;;12.60;52.30;;;;;;4990791;28;20030;-52
2021/10/10 09:20:41;;;;;;;7.00;5.15;;;12.60;52.30;;;;;;4990686;28;20084;-52
2021/10/10 09:23:30;;;;;;;7.15;4.50;;;12.60;52.20;;;;;;4993286;28;20027;-52
2021/10/10 09:26:01;;;;;;;6.30;4.13;;;12.60;51.70;;;;;;4993919;28;20040;-53
2021/10/10 09:28:29;;;;;;;6.13;4.47;;;12.60;52.00;;;;;;4993884;28;20026;-52
2021/10/10 09:30:57;;;;;;;5.55;4.30;;;12.60;52.00;;;;;;4993594;28;20030;-52
2021/10/10 09:33:53;;;;;;;7.57;4.50;;;12.60;51.80;;;;;;4993567;28;20042;-52
2021/10/10 09:36:22;;;;;;;5.60;4.38;;;12.60;51.70;;;;;;4993621;28;20106;-54
2021/10/10 09:41:34;;;;;;;6.15;4.88;;;12.50;51.20;;;;;;4993655;28;20534;-52
2021/10/10 09:44:04;;;;;;;6.35;3.85;;;12.50;51.00;;;;;;4993455;28;20030;-52
2021/10/10 09:46:30;;;;;;;7.15;4.40;;;12.50;51.00;;;;;;4975761;28;20053;-52
2021/10/10 09:48:56;;;;;;;5.45;3.80;;;12.50;51.00;;;;;;4993599;28;20512;-51
2021/10/10 09:51:30;;;;;;;5.07;4.00;;;12.50;50.70;;;;;;4993748;28;20434;-51
2021/10/10 09:54:06;;;;;;;5.53;4.30;;;12.50;50.60;;;;;;4976744;28;20027;-52
2021/10/10 09:56:33;;;;;;;6.18;4.13;;;12.60;50.80;;;;;;4977997;28;20027;-52
2021/10/10 09:58:59;;;;;;;9.30;4.90;;;12.60;50.90;;;;;;4978229;28;20065;-54
2021/10/10 10:01:29;;;;;;;5.63;4.38;;;12.70;51.00;;;;;;4989363;28;20069;-52
2021/10/10 10:04:07;;;;;;;5.38;4.10;;;12.70;50.80;;;;;;4993193;28;20437;-52
2021/10/10 10:06:35;;;;;;;6.85;4.63;;;12.80;50.60;;;;;;4977516;28;20031;-52
2021/10/10 10:09:10;;;;;;;4.80;3.72;;;12.90;50.80;;;;;;4984995;28;20039;-52
2021/10/10 10:11:42;;;;;;;4.60;4.07;;;12.90;50.90;;;;;;4977768;28;20030;-52
2021/10/10 10:14:14;;;;;;;5.70;4.03;;;13.00;50.80;;;;;;4977682;28;20418;-52
2021/10/10 10:16:50;;;;;;;5.55;4.32;;;13.00;50.60;;;;;;4988599;28;20105;-52
2021/10/10 10:19:18;;;;;;;5.43;4.20;;;13.10;50.60;;;;;;4995780;28;20094;-52
2021/10/10 10:21:47;;;;;;;6.93;4.50;;;13.10;50.40;;;;;;4996318;28;20524;-52
2021/10/10 10:24:13;;;;;;;4.63;3.92;;;13.20;50.30;;;;;;4996855;28;20030;-51
2021/10/10 10:26:39;;;;;;;6.93;4.30;;;13.20;50.30;;;;;;4996790;28;20058;-53
2021/10/10 10:29:11;;;;;;;6.90;4.68;;;13.20;50.10;;;;;;4996909;28;20037;-52
2021/10/10 10:31:37;;;;;;;6.05;4.45;;;13.20;49.90;;;;;;4996917;28;20022;-52
2021/10/10 10:34:21;;;;;;;7.57;4.57;;;13.20;50.00;;;;;;4996676;28;20478;-52
2021/10/10 10:36:59;;;;;;;7.53;4.50;;;13.20;49.80;;;;;;4996731;28;20355;-52
2021/10/10 10:39:41;;;;;;;7.10;4.53;;;13.20;49.90;;;;;;4986565;28;20047;-52
2021/10/10 10:42:10;;;;;;;;;;;13.20;49.70;;;;;;4994215;28;20131;-52
2021/10/10 10:44:48;;;;;;;6.57;4.43;;;13.20;49.40;;;;;;4996614;28;19909;-52
2021/10/10 10:47:17;;;;;;;6.28;4.35;;;13.20;49.40;;;;;;4996536;28;20089;-52
2021/10/10 10:49:55;;;;;;;6.78;4.43;;;13.20;49.40;;;;;;4996830;28;20049;-52
2021/10/10 10:52:25;;;;;;;7.10;4.10;;;13.30;49.50;;;;;;4996575;28;20574;-52
2021/10/10 10:55:12;;;;;;;6.05;4.15;;;13.40;49.70;;;;;;4996685;28;20030;-52
2021/10/10 10:57:51;;;;;;;5.32;3.80;;;13.40;49.50;;;;;;4977241;28;20054;-52
2021/10/10 11:00:29;;;;;;;4.57;3.75;;;13.40;49.40;;;;;;4978960;28;20089;-52
2021/10/10 11:03:12;;;;;;;8.95;4.35;;;13.50;50.00;;;;;;4996519;28;20041;-52
2021/10/10 11:05:42;;;;;;;4.88;3.42;;;13.60;49.30;;;;;;4995685;28;20087;-52
2021/10/10 11:08:10;;;;;;;4.85;3.38;;;13.60;49.10;;;;;;4984054;28;20023;-52
2021/10/10 11:10:38;;;;;;;5.72;3.97;;;13.70;49.10;;;;;;4996116;28;20113;-52
2021/10/10 11:13:06;;;;;;;5.70;3.40;;;13.70;49.00;;;;;;4983374;28;20038;-51
2021/10/10 11:15:57;;;;;;;5.53;4.03;;;13.70;48.90;;;;;;4976792;28;20015;-53
2021/10/10 11:18:25;;;;;;;4.80;3.65;;;13.80;49.10;;;;;;4987769;28;20397;-52
2021/10/10 11:21:02;;;;;;;5.20;3.92;;;13.80;49.10;;;;;;4993309;28;20021;-51
2021/10/10 11:23:28;;;;;;;7.10;3.85;;;13.90;49.20;;;;;;4996022;28;20022;-52
2021/10/10 11:25:56;;;;;;;4.32;3.33;;;14.00;49.30;;;;;;4993832;28;20041;-52
2021/10/10 11:28:49;;;;;;;4.15;3.03;;;14.00;49.30;;;;;;4994993;28;20018;-53
2021/10/10 11:31:16;;;;;;;4.03;3.00;;;14.10;49.20;;;;;;4991113;28;20022;-54
2021/10/10 11:33:44;;;;;;;4.45;3.50;;;14.20;49.40;;;;;;4993333;28;20415;-52
2021/10/10 11:36:11;;;;;;;4.43;3.20;;;14.20;49.30;;;;;;4994838;28;20045;-52
2021/10/10 11:39:07;;;;;;;4.43;3.20;;;14.30;49.20;;;;;;4988619;28;20038;-52
2021/10/10 11:41:38;;;;;;;4.50;3.25;;;14.40;49.20;;;;;;4974093;28;20098;-52
2021/10/10 11:44:07;;;;;;;4.47;3.27;;;14.40;49.20;;;;;;4991047;28;20030;-52
2021/10/10 11:46:52;;;;;;;4.65;3.45;;;14.40;48.90;;;;;;4986860;28;20283;-52
2021/10/10 11:49:44;;;;;;;4.07;2.95;;;14.50;48.90;;;;;;4986142;28;20026;-52
2021/10/10 11:52:13;;;;;;;5.35;3.67;;;14.50;48.80;;;;;;4989362;28;20027;-52
2021/10/10 11:54:40;;;;;;;4.13;2.90;;;14.50;48.80;;;;;;4989488;28;20022;-52
2021/10/10 11:57:08;;;;;;;4.18;2.97;;;14.60;49.00;;;;;;4987089;28;20050;-52
2021/10/10 11:59:34;;;;;;;5.85;3.00;;;14.60;48.80;;;;;;4988569;28;20118;-52
2021/10/10 12:02:01;;;;;;;4.72;3.40;;;14.60;48.60;;;;;;4988352;28;20133;-52
2021/10/10 12:04:27;;;;;;;4.47;3.42;;;14.60;48.60;;;;;;4987336;28;20112;-52
2021/10/10 12:06:53;;;;;;;4.50;3.30;;;14.60;48.60;;;;;;4984366;28;20138;-52
2021/10/10 12:09:19;;;;;;;3.95;3.00;;;14.50;48.50;;;;;;4985135;28;20387;-52
2021/10/10 12:12:14;;;;;;;5.00;3.40;;;14.60;48.50;;;;;;4983009;28;20389;-52
2021/10/10 12:14:52;;;;;;;5.05;3.10;;;14.60;48.50;;;;;;4988536;28;20038;-52
2021/10/10 12:17:34;;;;;;;4.20;3.45;;;14.60;48.50;;;;;;4985420;28;20045;-52
2021/10/10 12:20:04;;;;;;;5.15;3.22;;;14.60;48.40;;;;;;4984694;28;20475;-52
2021/10/10 12:22:31;;;;;;;4.10;3.00;;;14.60;48.40;;;;;;4984110;28;20033;-52
2021/10/10 12:24:56;;;;;;;4.22;2.85;;;14.60;48.30;;;;;;4983428;28;20684;-52
2021/10/10 12:27:31;;;;;;;4.13;3.00;;;14.60;48.20;;;;;;4983454;28;20057;-52
2021/10/10 12:30:00;;;;;;;5.90;3.10;;;14.70;48.10;;;;;;4983458;28;20026;-52
2021/10/10 12:32:31;;;;;;;3.65;3.08;;;14.70;48.20;;;;;;4982611;28;20035;-52
2021/10/10 12:35:15;;;;;;;5.47;3.40;;;14.70;48.20;;;;;;4985718;28;20145;-52
2021/10/10 12:37:54;;;;;;;4.45;3.10;;;14.70;48.40;;;;;;4984815;28;20030;-52
2021/10/10 12:40:30;;;;;;;3.92;3.00;;;14.70;48.50;;;;;;5001025;28;20038;-52
2021/10/10 12:42:57;;;;;;;3.22;2.70;;;14.70;48.40;;;;;;5006407;28;20061;-52
2021/10/10 12:48:05;;;;;;;;;;;14.70;48.50;;;;;;5009145;28;20064;-52
2021/10/10 12:50:32;;;;;;;3.45;2.60;;;14.70;48.80;;;;;;5009919;28;19916;-52
2021/10/10 12:52:59;;;;;;;3.42;3.00;;;14.80;48.70;;;;;;5004304;28;20044;-52
2021/10/10 12:55:27;;;;;;;3.97;3.17;;;14.80;48.60;;;;;;5005263;28;20390;-52
2021/10/10 12:57:57;;;;;;;5.03;2.95;;;14.80;48.80;;;;;;5002011;28;20488;-52
2021/10/10 13:00:25;;;;;;;4.32;2.97;;;14.80;48.70;;;;;;5006154;28;20470;-52
2021/10/10 13:02:51;;;;;;;3.92;3.05;;;14.80;48.90;;;;;;5005347;28;20509;-52